Time;durP1;ratioP1;P1;durP2;ratioP2;P2;SDS_P1;SDS_P2;PMS_P1;PMS_P2;Temp;Humidity;BMP_temperature;BMP_pressure;BME280_temperature;BME280_humidity;BME280_pressure;Samples;Min_cycle;Max_cycle;Signal;HPM_P1;HPM_P2
2023/05/18 00:02:00;;;;;;;4.00;3.58;;;17.50;51.50;;;;;;4996483;28;20216;-66
2023/05/18 00:04:28;;;;;;;4.88;3.92;;;17.50;51.50;;;;;;5014102;28;20195;-66
2023/05/18 00:06:57;;;;;;;4.20;3.80;;;17.40;52.10;;;;;;4996591;28;20702;-66
2023/05/18 00:09:24;;;;;;;4.10;3.70;;;17.40;51.40;;;;;;4996347;28;20270;-66
2023/05/18 00:11:51;;;;;;;4.32;3.60;;;17.40;51.30;;;;;;5014208;28;20264;-67
2023/05/18 00:14:18;;;;;;;4.07;3.53;;;17.30;51.40;;;;;;4996347;28;20667;-66
2023/05/18 00:16:46;;;;;;;4.88;3.60;;;17.30;51.50;;;;;;4996293;28;20193;-66
2023/05/18 00:19:14;;;;;;;4.35;3.92;;;17.30;51.50;;;;;;5013637;28;20336;-66
2023/05/18 00:21:41;;;;;;;4.20;3.80;;;17.30;51.30;;;;;;5013674;28;20208;-66
2023/05/18 00:24:09;;;;;;;4.38;3.58;;;17.30;51.20;;;;;;4996293;28;20295;-67
2023/05/18 00:26:37;;;;;;;4.00;3.50;;;17.30;51.40;;;;;;4996208;28;20204;-66
2023/05/18 00:29:04;;;;;;;4.25;3.17;;;17.30;51.40;;;;;;5013718;28;20585;-65
2023/05/18 00:31:34;;;;;;;4.22;3.38;;;17.30;51.60;;;;;;4996018;28;20291;-66
2023/05/18 00:34:03;;;;;;;4.22;3.42;;;17.20;51.60;;;;;;4996083;28;20239;-66
2023/05/18 00:36:32;;;;;;;5.38;3.45;;;17.20;51.30;;;;;;5013575;28;20196;-66
2023/05/18 00:38:59;;;;;;;3.72;3.17;;;17.20;52.10;;;;;;4995913;28;20223;-66
2023/05/18 00:41:27;;;;;;;4.85;3.72;;;17.20;51.30;;;;;;5013750;28;20687;-66
2023/05/18 00:43:54;;;;;;;3.50;3.20;;;17.20;51.30;;;;;;4995828;28;20662;-66
2023/05/18 00:46:21;;;;;;;3.83;3.10;;;17.20;51.70;;;;;;4995842;28;20642;-66
2023/05/18 00:48:48;;;;;;;3.97;3.42;;;17.20;51.40;;;;;;4995867;28;20220;-66
2023/05/18 00:51:15;;;;;;;4.82;3.30;;;17.20;51.70;;;;;;4995915;28;20192;-66
2023/05/18 00:53:44;;;;;;;4.70;3.33;;;17.20;51.30;;;;;;4995850;28;20205;-66
2023/05/18 00:56:12;;;;;;;4.03;3.65;;;17.20;51.60;;;;;;5013503;28;20667;-65
2023/05/18 00:58:39;;;;;;;3.92;3.42;;;17.10;51.30;;;;;;4995741;28;20319;-66
2023/05/18 01:01:08;;;;;;;4.07;3.67;;;17.10;51.30;;;;;;4995659;28;20298;-66
2023/05/18 01:03:37;;;;;;;5.55;4.00;;;17.10;52.10;;;;;;5013316;28;20181;-66
2023/05/18 01:06:04;;;;;;;4.32;3.92;;;17.10;51.60;;;;;;4995753;28;20685;-66
2023/05/18 01:08:31;;;;;;;4.50;3.80;;;17.10;51.60;;;;;;4995884;28;20223;-66
2023/05/18 01:11:02;;;;;;;6.05;4.63;;;17.10;51.50;;;;;;4995664;28;20197;-66
2023/05/18 01:13:34;;;;;;;4.97;4.10;;;17.10;51.60;;;;;;4995825;28;20207;-66
2023/05/18 01:16:01;;;;;;;5.10;4.07;;;17.10;51.70;;;;;;4995752;28;20693;-66
2023/05/18 01:18:31;;;;;;;4.90;4.10;;;17.00;51.50;;;;;;4995495;28;20699;-66
2023/05/18 01:21:00;;;;;;;4.28;3.60;;;17.00;51.50;;;;;;5013054;28;20189;-66
2023/05/18 01:23:53;;;;;;;4.82;4.00;;;17.00;51.70;;;;;;4995759;28;20296;-66
2023/05/18 01:26:28;;;;;;;4.65;3.83;;;17.00;51.30;;;;;;4995635;28;20223;-66
2023/05/18 01:28:56;;;;;;;3.80;3.45;;;17.00;51.50;;;;;;4995674;28;20275;-66
2023/05/18 01:31:23;;;;;;;4.47;3.75;;;17.00;51.90;;;;;;5013110;28;20272;-66
2023/05/18 01:33:51;;;;;;;3.95;3.60;;;17.00;52.00;;;;;;4995629;28;20733;-66
2023/05/18 01:36:18;;;;;;;5.90;3.33;;;17.00;52.00;;;;;;4995717;28;20204;-65
2023/05/18 01:38:45;;;;;;;4.40;3.60;;;17.00;52.10;;;;;;5013008;28;20205;-66
2023/05/18 01:41:17;;;;;;;4.78;3.47;;;17.00;52.10;;;;;;5012986;28;20284;-66
2023/05/18 01:43:50;;;;;;;4.25;3.58;;;17.00;52.10;;;;;;4995720;28;20251;-66
2023/05/18 01:46:21;;;;;;;5.70;3.70;;;16.90;52.00;;;;;;4995671;28;20228;-66
2023/05/18 01:48:50;;;;;;;4.57;3.60;;;16.90;52.10;;;;;;5013522;28;20572;-66
2023/05/18 01:51:17;;;;;;;4.43;4.00;;;16.90;52.10;;;;;;4995406;28;20197;-66
2023/05/18 01:53:46;;;;;;;4.00;3.60;;;16.90;51.90;;;;;;4995476;28;20667;-66
2023/05/18 01:56:13;;;;;;;4.63;4.00;;;16.90;52.10;;;;;;4995771;28;20196;-66
2023/05/18 01:58:40;;;;;;;5.47;3.80;;;16.90;52.00;;;;;;4998888;28;20220;-66
2023/05/18 02:01:09;;;;;;;3.95;3.53;;;16.90;52.10;;;;;;4998590;28;20192;-66
2023/05/18 02:03:36;;;;;;;4.00;3.60;;;16.80;52.00;;;;;;4998898;28;20734;-66
2023/05/18 02:06:04;;;;;;;4.30;3.63;;;16.90;52.10;;;;;;4999477;28;20201;-66
2023/05/18 02:08:31;;;;;;;4.55;3.80;;;16.90;52.10;;;;;;4998774;28;20220;-66
2023/05/18 02:11:05;;;;;;;4.53;3.80;;;16.80;52.00;;;;;;4998712;28;20689;-66
2023/05/18 02:13:36;;;;;;;4.07;3.55;;;16.80;51.90;;;;;;4998621;28;20200;-66
2023/05/18 02:16:03;;;;;;;4.25;3.53;;;16.80;52.10;;;;;;4998702;28;20307;-66
2023/05/18 02:18:34;;;;;;;4.10;3.70;;;16.80;52.00;;;;;;4998462;28;20574;-66
2023/05/18 02:21:02;;;;;;;4.57;3.80;;;16.80;52.00;;;;;;5015881;28;20631;-66
2023/05/18 02:23:32;;;;;;;5.28;3.75;;;16.80;52.00;;;;;;4998333;28;20213;-66
2023/05/18 02:26:00;;;;;;;3.83;3.40;;;16.80;52.00;;;;;;4998327;28;20201;-66
2023/05/18 02:28:27;;;;;;;4.68;3.70;;;16.80;51.90;;;;;;4998182;28;20221;-66
2023/05/18 02:30:54;;;;;;;4.43;4.00;;;16.80;52.00;;;;;;4998347;28;20200;-66
2023/05/18 02:33:24;;;;;;;4.38;3.45;;;16.80;52.00;;;;;;4998208;28;20579;-66
2023/05/18 02:35:54;;;;;;;4.00;3.50;;;16.70;51.90;;;;;;5015918;28;20544;-66
2023/05/18 02:38:21;;;;;;;4.00;3.60;;;16.70;51.90;;;;;;4998044;28;20631;-66
2023/05/18 02:40:48;;;;;;;4.53;3.67;;;16.70;52.00;;;;;;5015805;28;20279;-66
2023/05/18 02:43:17;;;;;;;3.83;3.42;;;16.70;51.90;;;;;;4997905;28;20212;-67
2023/05/18 02:45:44;;;;;;;3.85;3.45;;;16.70;52.00;;;;;;4997954;28;20619;-65
2023/05/18 02:48:12;;;;;;;3.38;3.08;;;16.70;51.90;;;;;;4997893;28;20247;-65
2023/05/18 02:50:40;;;;;;;4.10;3.20;;;16.70;51.90;;;;;;4997792;28;20192;-66
2023/05/18 02:53:08;;;;;;;3.83;3.33;;;16.70;51.90;;;;;;4997718;28;20697;-66
2023/05/18 02:55:36;;;;;;;5.25;4.10;;;16.70;52.00;;;;;;4997852;28;20193;-66
2023/05/18 02:58:12;;;;;;;4.40;3.60;;;16.70;51.90;;;;;;4998264;28;20220;-66
2023/05/18 03:01:02;;;;;;;4.20;3.72;;;16.70;51.90;;;;;;5014822;28;20201;-66
2023/05/18 03:03:34;;;;;;;4.82;3.97;;;16.70;52.00;;;;;;4997696;28;20216;-66
2023/05/18 03:06:02;;;;;;;4.30;3.90;;;16.60;51.70;;;;;;4997552;28;20251;-67
2023/05/18 03:08:31;;;;;;;3.55;3.25;;;16.60;51.90;;;;;;4997180;28;20217;-66
2023/05/18 03:10:58;;;;;;;5.47;3.85;;;16.60;51.90;;;;;;4997556;28;20213;-66
2023/05/18 03:13:26;;;;;;;4.15;3.72;;;16.60;51.60;;;;;;4997261;28;20208;-66
2023/05/18 03:15:55;;;;;;;4.47;3.75;;;16.60;51.80;;;;;;4997389;28;20319;-66
2023/05/18 03:18:24;;;;;;;4.10;3.40;;;16.60;51.90;;;;;;4997246;28;20223;-66
2023/05/18 03:20:51;;;;;;;4.45;3.63;;;16.60;51.60;;;;;;4997804;28;20654;-66
2023/05/18 03:23:19;;;;;;;3.97;3.58;;;16.60;51.50;;;;;;4997090;28;20229;-66
2023/05/18 03:25:53;;;;;;;3.47;3.17;;;16.70;51.90;;;;;;4997286;28;20633;-67
2023/05/18 03:28:21;;;;;;;4.60;3.47;;;16.70;51.90;;;;;;5015028;28;20208;-65
2023/05/18 03:30:49;;;;;;;3.72;3.42;;;16.70;51.90;;;;;;4997096;28;20201;-66
2023/05/18 03:33:16;;;;;;;4.15;3.20;;;16.70;51.90;;;;;;5014575;28;20204;-66
2023/05/18 03:35:43;;;;;;;3.22;2.92;;;16.80;51.90;;;;;;4997052;28;20270;-65
2023/05/18 03:38:10;;;;;;;3.40;3.10;;;16.90;51.70;;;;;;4996919;28;20193;-66
2023/05/18 03:40:42;;;;;;;3.42;3.13;;;16.90;51.60;;;;;;4997009;28;20200;-65
2023/05/18 03:43:11;;;;;;;3.45;3.00;;;17.00;51.50;;;;;;4996786;28;20224;-66
2023/05/18 03:45:39;;;;;;;3.30;3.00;;;17.00;51.20;;;;;;4997030;28;20208;-65
2023/05/18 03:48:07;;;;;;;3.60;3.30;;;17.00;51.20;;;;;;4996751;28;20201;-66
2023/05/18 03:50:34;;;;;;;3.70;3.40;;;17.00;51.20;;;;;;5014273;28;20184;-66
2023/05/18 03:53:02;;;;;;;3.60;3.28;;;17.10;51.00;;;;;;4996676;28;20211;-66
2023/05/18 03:55:30;;;;;;;4.10;3.65;;;17.10;51.50;;;;;;4996591;28;20200;-66
2023/05/18 03:58:00;;;;;;;5.63;3.55;;;17.10;50.80;;;;;;4996553;28;20682;-66
2023/05/18 04:00:29;;;;;;;3.88;3.40;;;17.10;50.70;;;;;;4996604;28;20200;-66
2023/05/18 04:02:56;;;;;;;4.18;3.78;;;17.10;50.60;;;;;;5014859;28;20292;-66
2023/05/18 04:05:27;;;;;;;3.67;3.28;;;17.00;50.60;;;;;;4996630;28;20200;-66
2023/05/18 04:07:56;;;;;;;4.32;3.67;;;17.00;50.40;;;;;;5014175;28;20201;-65
2023/05/18 04:10:23;;;;;;;3.58;3.17;;;17.00;50.60;;;;;;5014012;28;20679;-66
2023/05/18 04:12:50;;;;;;;3.40;3.05;;;17.00;50.80;;;;;;4996585;28;20272;-65
2023/05/18 04:15:17;;;;;;;4.45;3.33;;;17.00;50.80;;;;;;5014026;28;20618;-66
2023/05/18 04:17:46;;;;;;;3.92;3.50;;;17.00;50.90;;;;;;4996303;28;20204;-66
2023/05/18 04:20:13;;;;;;;3.65;3.35;;;17.00;50.80;;;;;;4995767;28;20221;-66
2023/05/18 04:22:44;;;;;;;3.58;3.22;;;17.00;50.80;;;;;;4996147;28;20240;-66
2023/05/18 04:25:12;;;;;;;3.97;3.30;;;16.90;50.80;;;;;;4996548;28;20701;-66
2023/05/18 04:27:40;;;;;;;3.50;3.17;;;17.00;51.00;;;;;;4996135;28;20612;-66
2023/05/18 04:30:09;;;;;;;3.53;3.03;;;17.00;50.90;;;;;;4996035;28;20217;-65
2023/05/18 04:32:36;;;;;;;3.50;3.20;;;17.00;50.80;;;;;;5013787;28;20185;-66
2023/05/18 04:35:06;;;;;;;3.38;3.08;;;17.00;50.80;;;;;;4996690;28;20568;-66
2023/05/18 04:37:34;;;;;;;3.92;3.00;;;17.00;51.00;;;;;;4996242;28;20193;-66
2023/05/18 04:40:05;;;;;;;4.93;3.40;;;17.00;50.80;;;;;;4996262;28;20303;-66
2023/05/18 04:42:33;;;;;;;3.85;3.22;;;17.10;50.80;;;;;;4995933;28;20232;-66
2023/05/18 04:45:00;;;;;;;3.90;3.55;;;17.10;50.80;;;;;;4996106;28;20200;-66
2023/05/18 04:47:28;;;;;;;3.60;3.30;;;17.20;50.80;;;;;;4995964;28;20242;-66
2023/05/18 04:49:56;;;;;;;3.75;3.15;;;17.30;50.80;;;;;;4995793;28;20219;-66
2023/05/18 04:52:25;;;;;;;3.67;2.80;;;17.40;50.40;;;;;;4996079;28;20262;-66
2023/05/18 04:54:52;;;;;;;5.25;3.20;;;17.50;50.20;;;;;;4995939;28;20738;-66
2023/05/18 04:57:19;;;;;;;3.53;3.08;;;17.70;49.80;;;;;;4996021;28;20300;-66
2023/05/18 04:59:46;;;;;;;3.28;2.97;;;17.80;49.50;;;;;;4995833;28;20221;-66
2023/05/18 05:02:14;;;;;;;4.45;3.20;;;18.00;49.10;;;;;;4995982;28;20247;-66
2023/05/18 05:04:42;;;;;;;3.25;2.90;;;18.10;48.80;;;;;;4996036;28;20202;-66
2023/05/18 05:07:09;;;;;;;3.33;3.03;;;18.20;48.60;;;;;;4996045;28;20252;-66
2023/05/18 05:09:38;;;;;;;3.25;2.95;;;18.40;48.50;;;;;;4996158;28;20595;-66
2023/05/18 05:12:06;;;;;;;3.30;3.00;;;18.50;48.40;;;;;;4995699;28;20200;-66
2023/05/18 05:14:33;;;;;;;3.30;3.00;;;18.60;48.20;;;;;;4995786;28;20296;-66
2023/05/18 05:17:00;;;;;;;3.20;2.85;;;18.70;48.10;;;;;;4995981;28;20219;-66
2023/05/18 05:19:27;;;;;;;3.85;2.70;;;18.80;47.90;;;;;;4995942;28;20275;-66
2023/05/18 05:21:54;;;;;;;3.00;2.70;;;18.90;47.70;;;;;;4995686;28;20209;-66
2023/05/18 05:24:22;;;;;;;3.17;2.88;;;19.00;47.50;;;;;;4995591;28;20267;-66
2023/05/18 05:26:51;;;;;;;3.25;2.95;;;19.10;47.40;;;;;;4995674;28;20223;-66
2023/05/18 05:29:18;;;;;;;3.30;2.97;;;19.20;47.40;;;;;;4995521;28;20221;-66
2023/05/18 05:31:45;;;;;;;2.83;2.60;;;19.30;46.90;;;;;;4998193;28;20208;-66
2023/05/18 05:34:13;;;;;;;3.60;3.17;;;19.40;46.80;;;;;;4999384;28;20193;-66
2023/05/18 05:36:40;;;;;;;3.20;2.90;;;19.50;46.80;;;;;;4999339;28;20221;-66
2023/05/18 05:39:08;;;;;;;4.25;2.78;;;19.60;46.60;;;;;;4999178;28;20710;-66
2023/05/18 05:41:34;;;;;;;2.90;2.60;;;19.80;46.60;;;;;;4999371;28;20737;-66
2023/05/18 05:44:03;;;;;;;2.97;2.67;;;19.90;46.30;;;;;;4999295;28;20231;-67
2023/05/18 05:46:31;;;;;;;2.88;2.60;;;19.90;46.20;;;;;;4999126;28;20573;-67
2023/05/18 05:49:00;;;;;;;3.25;2.95;;;20.10;46.00;;;;;;4999451;28;20216;-67
2023/05/18 05:51:27;;;;;;;3.05;2.60;;;20.10;45.90;;;;;;5016958;28;20193;-67
2023/05/18 05:53:55;;;;;;;2.97;2.70;;;20.20;45.90;;;;;;4999128;28;20307;-67
2023/05/18 05:56:22;;;;;;;3.33;2.83;;;20.30;45.70;;;;;;4998923;28;20271;-67
2023/05/18 05:58:49;;;;;;;3.42;3.08;;;20.40;45.50;;;;;;5016530;28;20335;-67
2023/05/18 06:01:18;;;;;;;3.53;2.50;;;20.40;45.30;;;;;;4999056;28;20552;-67
2023/05/18 06:03:45;;;;;;;2.88;2.65;;;20.50;45.00;;;;;;4998873;28;20216;-67
2023/05/18 06:06:13;;;;;;;2.72;2.50;;;20.60;44.60;;;;;;4999024;28;20224;-67
2023/05/18 06:08:40;;;;;;;3.78;2.50;;;20.70;44.70;;;;;;4999715;28;20216;-67
2023/05/18 06:11:07;;;;;;;3.97;2.72;;;20.80;44.70;;;;;;4999060;28;20641;-67
2023/05/18 06:13:34;;;;;;;3.30;3.00;;;20.80;44.40;;;;;;4998854;28;20197;-68
2023/05/18 06:16:02;;;;;;;3.50;2.60;;;20.90;44.30;;;;;;4998796;28;20193;-67
2023/05/18 06:18:30;;;;;;;3.90;2.72;;;21.00;44.10;;;;;;4998782;28;20212;-67
2023/05/18 06:21:01;;;;;;;2.50;2.30;;;21.10;44.10;;;;;;4998971;28;20201;-67
2023/05/18 06:23:29;;;;;;;2.92;2.38;;;21.20;44.10;;;;;;4998507;28;20255;-67
2023/05/18 06:25:56;;;;;;;3.10;2.53;;;21.30;43.90;;;;;;5016542;28;20200;-67
2023/05/18 06:28:32;;;;;;;3.40;2.60;;;21.40;43.80;;;;;;4998548;28;20216;-67
2023/05/18 06:31:13;;;;;;;3.65;2.50;;;21.30;43.50;;;;;;4998886;28;20193;-67
2023/05/18 06:33:51;;;;;;;2.92;2.58;;;21.50;43.40;;;;;;4998358;28;20682;-67
2023/05/18 06:36:18;;;;;;;3.40;2.60;;;21.50;43.40;;;;;;4998844;28;20216;-66
2023/05/18 06:38:45;;;;;;;3.47;2.53;;;21.60;43.20;;;;;;4998339;28;20304;-67
2023/05/18 06:41:12;;;;;;;4.53;2.65;;;21.70;43.10;;;;;;4998504;28;20204;-67
2023/05/18 06:43:39;;;;;;;3.25;2.72;;;21.70;42.90;;;;;;4997704;28;20213;-67
2023/05/18 06:46:21;;;;;;;2.65;2.45;;;21.80;42.70;;;;;;4998101;28;20235;-66
2023/05/18 06:48:52;;;;;;;3.53;2.53;;;21.90;42.80;;;;;;4998175;28;20227;-67
2023/05/18 06:51:19;;;;;;;2.85;2.47;;;22.00;42.60;;;;;;4998134;28;20201;-67
2023/05/18 06:53:46;;;;;;;3.80;2.60;;;22.00;42.50;;;;;;4997776;28;20209;-69
2023/05/18 06:56:14;;;;;;;2.60;2.40;;;22.10;42.30;;;;;;4997961;28;20566;-71
2023/05/18 06:58:43;;;;;;;3.50;2.50;;;22.20;42.20;;;;;;4998439;28;20212;-71
2023/05/18 07:01:10;;;;;;;2.83;2.45;;;22.30;42.20;;;;;;4997887;28;20258;-68
2023/05/18 07:03:37;;;;;;;6.25;2.80;;;22.30;41.90;;;;;;5015367;28;20216;-68
2023/05/18 07:06:06;;;;;;;4.15;2.92;;;22.40;41.60;;;;;;4997862;28;20205;-71
2023/05/18 07:08:35;;;;;;;3.88;2.70;;;22.40;41.90;;;;;;5015154;28;20240;-68
2023/05/18 07:11:03;;;;;;;4.75;2.92;;;22.50;41.70;;;;;;4997738;28;20220;-70
2023/05/18 07:13:30;;;;;;;4.68;2.90;;;22.60;41.50;;;;;;4997606;28;20196;-69
2023/05/18 07:15:57;;;;;;;3.30;2.72;;;22.60;41.50;;;;;;4997767;28;20197;-70
2023/05/18 07:18:25;;;;;;;6.18;3.20;;;22.70;41.30;;;;;;5015021;28;20773;-70
2023/05/18 07:20:52;;;;;;;4.75;3.08;;;22.80;41.20;;;;;;5014002;28;20431;-74
2023/05/18 07:23:21;;;;;;;6.30;3.30;;;22.80;41.80;;;;;;4998205;28;20392;-68
2023/05/18 07:25:48;;;;;;;6.07;3.55;;;22.80;39.30;;;;;;4998458;28;20291;-73
2023/05/18 07:28:16;;;;;;;17.42;8.80;;;22.90;40.00;;;;;;5017243;28;20620;-66
2023/05/18 07:30:43;;;;;;;11.18;6.72;;;22.90;39.00;;;;;;4997439;28;20201;-68
2023/05/18 07:33:10;;;;;;;36.95;18.60;;;23.00;38.40;;;;;;4998568;28;20192;-71
2023/05/18 07:35:37;;;;;;;26.63;13.45;;;23.10;38.30;;;;;;4997471;28;20648;-68
2023/05/18 07:38:04;;;;;;;28.52;15.70;;;23.10;38.70;;;;;;5015494;28;20200;-68
2023/05/18 07:40:32;;;;;;;22.25;11.57;;;23.20;38.50;;;;;;5015250;28;20192;-66
2023/05/18 07:43:00;;;;;;;22.08;12.50;;;23.20;38.40;;;;;;4997997;28;20196;-69
2023/05/18 07:45:26;;;;;;;18.23;9.00;;;23.30;38.90;;;;;;5016245;28;20205;-69
2023/05/18 07:47:54;;;;;;;13.70;8.80;;;23.40;38.10;;;;;;5015297;28;20197;-66
2023/05/18 07:50:21;;;;;;;16.20;7.80;;;23.40;38.00;;;;;;4998273;28;20264;-67
2023/05/18 07:52:48;;;;;;;11.07;6.85;;;23.40;36.90;;;;;;4997571;28;20211;-68
2023/05/18 07:55:16;;;;;;;14.45;7.03;;;23.50;37.00;;;;;;4997185;28;20216;-67
2023/05/18 07:57:44;;;;;;;14.35;7.13;;;23.50;36.60;;;;;;5015184;28;20539;-67
2023/05/18 08:00:13;;;;;;;13.98;6.80;;;23.60;37.00;;;;;;4998294;28;20224;-67
2023/05/18 08:02:40;;;;;;;13.30;6.25;;;23.60;36.40;;;;;;5016401;28;20196;-66
2023/05/18 08:05:09;;;;;;;10.57;5.88;;;23.60;36.40;;;;;;5016351;28;20199;-68
2023/05/18 08:07:36;;;;;;;10.05;5.90;;;23.60;37.20;;;;;;4997854;28;20196;-67
2023/05/18 08:10:04;;;;;;;10.48;5.40;;;23.60;37.00;;;;;;4999063;28;20670;-67
2023/05/18 08:12:30;;;;;;;9.45;4.82;;;23.70;35.80;;;;;;5017201;28;20561;-67
2023/05/18 08:14:59;;;;;;;9.90;4.72;;;23.80;35.90;;;;;;5000143;28;20207;-68
2023/05/18 08:17:26;;;;;;;9.68;4.95;;;23.80;36.00;;;;;;5015379;28;20243;-67
2023/05/18 08:19:53;;;;;;;8.00;4.55;;;23.90;36.20;;;;;;4998752;28;20221;-66
2023/05/18 08:22:20;;;;;;;11.18;4.82;;;23.90;36.60;;;;;;4997788;28;20223;-66
2023/05/18 08:24:47;;;;;;;11.77;4.50;;;24.00;36.30;;;;;;4998012;28;20303;-68
2023/05/18 08:27:15;;;;;;;9.02;4.30;;;24.00;36.40;;;;;;5014406;28;20195;-67
2023/05/18 08:29:42;;;;;;;7.07;3.80;;;24.00;35.30;;;;;;4998255;28;20212;-66
2023/05/18 08:32:10;;;;;;;7.53;3.78;;;24.00;35.10;;;;;;4999235;28;20212;-67
2023/05/18 08:34:38;;;;;;;6.15;3.80;;;24.10;35.00;;;;;;4998111;28;20208;-68
2023/05/18 08:37:05;;;;;;;7.63;3.78;;;24.10;35.30;;;;;;4997285;28;20201;-67
2023/05/18 08:39:31;;;;;;;6.15;3.33;;;24.10;35.30;;;;;;4996630;28;20220;-66
2023/05/18 08:42:01;;;;;;;8.55;3.83;;;24.10;35.00;;;;;;4996546;28;20205;-67
2023/05/18 08:44:30;;;;;;;6.53;3.20;;;24.00;34.80;;;;;;5013984;28;20730;-66
2023/05/18 08:46:58;;;;;;;6.15;3.20;;;24.10;34.70;;;;;;5001284;28;20578;-69
2023/05/18 08:49:26;;;;;;;5.28;3.25;;;24.10;34.70;;;;;;5023192;28;20216;-70
2023/05/18 08:51:55;;;;;;;4.95;3.80;;;24.20;35.30;;;;;;5001133;28;20250;-72
2023/05/18 08:54:23;;;;;;;6.75;3.80;;;24.20;35.80;;;;;;5001430;28;20204;-70
2023/05/18 08:56:50;;;;;;;5.05;3.30;;;24.30;36.30;;;;;;5000326;28;20200;-70
2023/05/18 08:59:20;;;;;;;5.28;3.40;;;24.30;37.00;;;;;;5020369;28;20222;-71
2023/05/18 09:01:47;;;;;;;5.35;3.28;;;24.30;36.60;;;;;;5000016;28;20200;-70
2023/05/18 09:04:14;;;;;;;6.72;3.45;;;24.30;36.40;;;;;;4999729;28;20295;-72
2023/05/18 09:06:43;;;;;;;6.15;3.25;;;24.40;36.00;;;;;;4999730;28;20228;-69
2023/05/18 09:09:10;;;;;;;6.00;3.30;;;24.50;35.60;;;;;;5001400;28;20224;-68
2023/05/18 09:11:37;;;;;;;5.07;3.20;;;24.50;36.20;;;;;;5006837;28;20202;-68
2023/05/18 09:14:04;;;;;;;5.68;2.80;;;24.40;36.20;;;;;;5013418;28;20203;-68
2023/05/18 09:16:31;;;;;;;8.13;3.33;;;24.30;35.70;;;;;;5009281;28;20287;-68
2023/05/18 09:18:58;;;;;;;5.25;3.22;;;24.30;36.40;;;;;;5005891;28;20575;-67
2023/05/18 09:21:26;;;;;;;6.20;3.33;;;24.20;36.40;;;;;;5022443;28;20189;-68
2023/05/18 09:23:54;;;;;;;7.45;3.05;;;24.20;36.20;;;;;;5003735;28;20271;-68
2023/05/18 09:26:21;;;;;;;5.65;3.00;;;24.20;36.60;;;;;;5020000;28;20192;-70
2023/05/18 09:28:52;;;;;;;5.88;2.70;;;24.10;36.40;;;;;;5020077;28;20262;-69
2023/05/18 09:31:19;;;;;;;5.97;3.03;;;24.00;37.00;;;;;;5002161;28;20268;-70
2023/05/18 09:33:46;;;;;;;5.70;3.00;;;23.90;37.90;;;;;;5018671;28;20232;-69
2023/05/18 09:36:14;;;;;;;5.53;3.22;;;23.80;38.10;;;;;;5017321;28;20196;-68
2023/05/18 09:38:44;;;;;;;4.57;3.00;;;23.80;38.70;;;;;;4999394;28;20225;-67
2023/05/18 09:41:15;;;;;;;7.03;3.05;;;23.70;38.60;;;;;;5017265;28;20185;-68
2023/05/18 09:43:44;;;;;;;5.95;3.00;;;23.60;37.80;;;;;;5016850;28;20209;-66
2023/05/18 09:46:12;;;;;;;5.78;2.85;;;23.50;38.30;;;;;;5016721;28;20192;-68
2023/05/18 09:48:42;;;;;;;7.97;3.17;;;23.50;38.80;;;;;;5016777;28;20208;-68
2023/05/18 09:51:10;;;;;;;3.63;2.85;;;23.50;38.70;;;;;;5017247;28;20200;-67
2023/05/18 09:53:38;;;;;;;5.40;2.95;;;23.60;38.90;;;;;;5016692;28;20580;-67
2023/05/18 09:56:08;;;;;;;5.90;3.20;;;23.60;39.00;;;;;;5033156;28;20196;-67
2023/05/18 09:58:36;;;;;;;6.20;3.13;;;23.50;39.00;;;;;;5037435;28;20219;-67
2023/05/18 10:01:04;;;;;;;4.95;2.80;;;23.60;39.00;;;;;;5016800;28;20201;-67
2023/05/18 10:03:35;;;;;;;5.25;2.88;;;23.60;39.00;;;;;;4999228;28;20340;-68
2023/05/18 10:06:04;;;;;;;6.00;2.80;;;23.60;39.00;;;;;;4999150;28;20208;-67
2023/05/18 10:08:31;;;;;;;6.47;3.00;;;23.60;39.00;;;;;;5002765;28;20272;-67
2023/05/18 10:10:58;;;;;;;6.43;3.25;;;23.60;39.00;;;;;;5008187;28;20196;-67
2023/05/18 10:13:26;;;;;;;4.05;2.83;;;23.50;39.00;;;;;;5006968;28;20201;-67
2023/05/18 10:15:57;;;;;;;7.25;2.42;;;23.50;39.10;;;;;;4999496;28;20221;-68
2023/05/18 10:18:25;;;;;;;4.35;2.53;;;23.50;39.20;;;;;;5030541;28;20228;-69
2023/05/18 10:20:53;;;;;;;4.90;2.85;;;23.50;39.40;;;;;;4998747;28;20254;-69
2023/05/18 10:23:22;;;;;;;4.72;2.80;;;23.40;40.00;;;;;;4998473;28;20255;-67
2023/05/18 10:25:49;;;;;;;5.43;2.72;;;23.40;39.40;;;;;;5016383;28;20215;-68
2023/05/18 10:28:24;;;;;;;6.47;2.75;;;23.40;39.40;;;;;;4998315;28;20220;-67
2023/05/18 10:30:53;;;;;;;4.72;2.92;;;23.40;39.40;;;;;;5031309;28;20195;-67
2023/05/18 10:33:22;;;;;;;3.70;2.60;;;23.30;39.40;;;;;;4998354;28;20254;-68
2023/05/18 10:35:49;;;;;;;3.95;2.90;;;23.30;39.30;;;;;;4998414;28;20596;-68
2023/05/18 10:38:19;;;;;;;4.35;2.75;;;23.30;39.40;;;;;;4998271;28;20272;-68
2023/05/18 10:40:47;;;;;;;4.50;2.75;;;23.30;39.40;;;;;;4998263;28;20204;-68
2023/05/18 10:43:16;;;;;;;4.68;2.70;;;23.30;39.50;;;;;;4998201;28;20193;-68
2023/05/18 10:45:44;;;;;;;4.38;2.85;;;23.20;39.40;;;;;;5049608;23;20242;-80
2023/05/18 10:48:11;;;;;;;4.43;2.90;;;23.20;39.60;;;;;;5038104;28;20290;-80
2023/05/18 10:50:39;;;;;;;7.78;3.00;;;23.20;39.60;;;;;;5037846;28;20249;-80
2023/05/18 10:53:07;;;;;;;4.80;2.70;;;23.20;39.80;;;;;;5018635;28;20649;-80
2023/05/18 10:55:34;;;;;;;4.80;2.75;;;23.20;39.80;;;;;;5002448;28;20287;-80
2023/05/18 10:58:03;;;;;;;6.20;2.70;;;23.10;39.80;;;;;;5017979;28;20693;-79
2023/05/18 11:00:30;;;;;;;3.53;2.50;;;23.10;39.90;;;;;;5002174;28;20279;-79
2023/05/18 11:02:58;;;;;;;4.30;2.60;;;23.00;40.00;;;;;;5017735;28;20588;-79
2023/05/18 11:05:25;;;;;;;3.28;2.65;;;23.10;40.00;;;;;;5017783;28;20212;-79
2023/05/18 11:08:02;;;;;;;4.47;2.42;;;23.00;40.00;;;;;;5018516;28;20200;-79
2023/05/18 11:10:33;;;;;;;5.30;2.70;;;23.00;40.10;;;;;;5018086;28;20196;-80
2023/05/18 11:13:01;;;;;;;4.93;2.80;;;23.00;40.10;;;;;;5017970;28;20220;-79
2023/05/18 11:16:03;;;;;;;5.28;2.58;;;23.00;40.20;;;;;;5017971;28;20196;-80
2023/05/18 11:18:44;;;;;;;4.03;3.10;;;23.00;40.30;;;;;;5018363;28;20196;-80
2023/05/18 11:21:34;;;;;;;4.60;2.60;;;23.00;40.40;;;;;;5018003;28;20243;-80
2023/05/18 11:24:35;;;;;;;3.45;2.50;;;22.90;40.30;;;;;;5017740;28;20196;-80
2023/05/18 11:27:07;;;;;;;4.35;2.50;;;23.00;40.40;;;;;;5021925;28;20200;-79
2023/05/18 11:29:35;;;;;;;4.43;2.80;;;22.90;40.40;;;;;;5018375;28;20215;-79
2023/05/18 11:32:02;;;;;;;4.10;2.88;;;22.90;40.50;;;;;;5017514;28;20247;-79
2023/05/18 11:34:51;;;;;;;5.40;2.80;;;22.90;40.50;;;;;;5017626;28;20689;-79
2023/05/18 11:37:49;;;;;;;3.15;2.40;;;22.90;40.60;;;;;;5018122;28;20184;-79
2023/05/18 11:40:48;;;;;;;3.67;2.60;;;22.80;40.60;;;;;;5017458;28;20279;-79
2023/05/18 11:43:21;;;;;;;4.22;2.45;;;22.80;40.70;;;;;;5011249;28;20677;-79
2023/05/18 11:45:52;;;;;;;4.43;2.83;;;22.80;40.70;;;;;;5017169;28;20252;-79
2023/05/18 11:48:21;;;;;;;3.33;2.50;;;22.80;40.70;;;;;;5017384;28;20195;-79
2023/05/18 11:50:48;;;;;;;4.10;2.35;;;22.80;40.80;;;;;;5017893;28;20642;-79
2023/05/18 11:53:16;;;;;;;3.72;2.40;;;22.80;40.70;;;;;;5017199;28;20295;-79
2023/05/18 11:55:44;;;;;;;2.80;2.38;;;22.80;40.80;;;;;;5018231;28;20204;-79
2023/05/18 11:58:17;;;;;;;3.65;2.50;;;22.80;40.80;;;;;;5017551;28;20207;-79
2023/05/18 12:00:46;;;;;;;2.97;2.40;;;22.80;40.80;;;;;;5017411;28;20200;-79
2023/05/18 12:03:13;;;;;;;3.08;2.47;;;22.80;40.90;;;;;;5016950;28;20236;-79
2023/05/18 12:05:43;;;;;;;4.18;2.58;;;22.70;40.90;;;;;;5017399;28;20311;-79
2023/05/18 12:08:10;;;;;;;3.38;2.45;;;22.80;41.10;;;;;;5017501;28;20202;-79
2023/05/18 12:10:38;;;;;;;3.42;2.40;;;22.70;41.10;;;;;;5017097;28;20207;-79
2023/05/18 12:13:05;;;;;;;2.63;2.30;;;22.70;41.20;;;;;;5016768;28;20219;-80
2023/05/18 12:15:32;;;;;;;3.67;2.40;;;22.70;41.20;;;;;;5017252;28;20642;-79
2023/05/18 12:18:01;;;;;;;4.22;2.60;;;22.60;41.20;;;;;;5017504;28;20556;-80
2023/05/18 12:20:29;;;;;;;3.58;2.42;;;22.60;41.30;;;;;;5001698;28;20659;-80
2023/05/18 12:22:57;;;;;;;2.88;2.30;;;22.60;41.30;;;;;;5017292;28;20223;-80
2023/05/18 12:25:25;;;;;;;4.28;2.50;;;22.60;41.40;;;;;;5016777;28;20278;-80
2023/05/18 12:27:53;;;;;;;2.60;2.20;;;22.60;41.50;;;;;;5016803;28;20248;-79
2023/05/18 12:30:21;;;;;;;3.00;2.17;;;22.60;41.40;;;;;;5016431;28;20730;-79
2023/05/18 12:32:49;;;;;;;2.55;2.20;;;22.70;41.50;;;;;;5016387;28;20211;-79
2023/05/18 12:35:17;;;;;;;3.45;2.70;;;22.70;41.50;;;;;;5016603;28;20192;-79
2023/05/18 12:37:45;;;;;;;2.92;2.30;;;22.60;41.50;;;;;;5000541;28;20196;-79
2023/05/18 12:40:13;;;;;;;3.47;2.53;;;22.60;41.50;;;;;;5015998;28;20188;-79
2023/05/18 12:42:41;;;;;;;2.75;2.28;;;22.60;41.50;;;;;;5016784;28;20586;-79
2023/05/18 12:45:10;;;;;;;2.50;2.30;;;22.70;41.60;;;;;;5015323;28;20228;-79
2023/05/18 12:47:41;;;;;;;3.38;2.38;;;22.70;41.60;;;;;;5017035;28;20196;-79
2023/05/18 12:50:09;;;;;;;3.05;2.40;;;22.70;41.60;;;;;;4999883;28;20194;-79
2023/05/18 12:52:38;;;;;;;2.60;2.40;;;22.70;41.60;;;;;;5000397;28;20220;-79
2023/05/18 12:55:05;;;;;;;3.08;2.13;;;22.60;41.50;;;;;;5016176;28;20200;-79